Eizo Maru — JD2944 — position and weather

sailwx.info

Track history (hours):
 
Tides and Currents Weather Stations Pressure Air Temp Water Temp Dewpoint Dewpoint Depression Visibility Wind Speed Wind Dir Waves Ship Positions

Eizo Maru

Last reported at 2014-Aug-29 07:33 UTC. Time now 2014-Aug-29 08:06 UTC.
Position N 35°29' E 139°51'.

Length 80 m; draft 4.7 m.

Type: Tanker. MMSI: 431000976.

Date/timePositionNaut miles runAvg speedWind from/ knotsBaromVisibWave heightAir tempDewpointWater temp
2014-Aug-29 07:33N 35°29' E 139°51'10 8.1
2014-Aug-29 06:22N 35°31' E 140°03'0 0.0
2014-Aug-29 05:31N 35°31' E 140°03'0 0.0
2014-Aug-29 04:31N 35°31' E 140°03'0 0.0
2014-Aug-29 03:28N 35°31' E 140°03'0 0.0
2014-Aug-29 02:31N 35°31' E 140°03'3 2.6
2014-Aug-29 01:26N 35°31' E 139°59'0 0.0
2014-Aug-29 00:23N 35°31' E 139°59'0 0.0
2014-Aug-28 23:32N 35°31' E 139°59'0 0.0
2014-Aug-28 22:32N 35°31' E 139°59'0 0.0
2014-Aug-28 21:26N 35°31' E 139°59'0 0.0
2014-Aug-28 20:26N 35°31' E 139°59'0 0.0
2014-Aug-28 19:32N 35°31' E 139°59'0 0.0
2014-Aug-28 18:32N 35°31' E 139°59'0 0.0
2014-Aug-28 17:32N 35°31' E 139°59'0 0.0
2014-Aug-28 16:32N 35°31' E 139°59'0 0.0
2014-Aug-28 15:29N 35°31' E 139°59'0 0.1
2014-Aug-28 14:29N 35°31' E 139°59'1010.5
2014-Aug-28 13:33N 35°26' E 139°49'1110.8
2014-Aug-28 12:34N 35°16' E 139°47'1211.7
2014-Aug-28 11:34N 35°05' E 139°42'31 1.4
2014-Aug-27 14:06N 34°48' E 139°10'2112.9
2014-Aug-27 12:29N 35°01' E 139°30'1213.2
2014-Aug-27 11:33N 35°08' E 139°42'1212.0
2014-Aug-27 10:33N 35°20' E 139°43'1111.3
2014-Aug-27 09:33N 35°30' E 139°47'1 0.8
2014-Aug-27 08:21N 35°31' E 139°46'0 0.0
2014-Aug-27 07:24N 35°31' E 139°46'0 0.0
2014-Aug-27 06:33N 35°31' E 139°46'6 5.6
2014-Aug-27 05:33N 35°31' E 139°53'8 7.9
2014-Aug-27 04:34N 35°31' E 140°02'0 0.0
2014-Aug-27 03:34N 35°31' E 140°02'0 0.0
2014-Aug-27 02:34N 35°31' E 140°02'0 0.0
2014-Aug-27 01:33N 35°31' E 140°02'0 0.0
2014-Aug-27 00:34N 35°31' E 140°02'0 0.0
2014-Aug-26 23:34N 35°31' E 140°02'0 0.0
2014-Aug-26 22:33N 35°31' E 140°02'2 2.4
2014-Aug-26 21:34N 35°32' E 139°60'1 0.6
2014-Aug-26 20:33N 35°32' E 139°59'0 0.0
2014-Aug-26 19:33N 35°32' E 139°59'0 0.0
2014-Aug-26 18:33N 35°32' E 139°59'0 0.0
2014-Aug-26 17:27N 35°32' E 139°59'0 0.0
2014-Aug-26 16:33N 35°32' E 139°59'0 0.0
2014-Aug-26 15:33N 35°32' E 139°59'0 0.0
2014-Aug-26 14:33N 35°32' E 139°59'0 0.0
2014-Aug-26 13:33N 35°32' E 139°59'0 0.0
2014-Aug-26 12:33N 35°32' E 139°59'0 0.0
2014-Aug-26 11:33N 35°32' E 139°59'0 0.0
2014-Aug-26 10:33N 35°32' E 139°59'2 2.4
2014-Aug-26 09:33N 35°31' E 139°56'8 1.0
2014-Aug-26 01:19N 35°31' E 139°46'2 2.4
2014-Aug-26 00:25N 35°29' E 139°48'0 0.0
2014-Aug-25 23:31N 35°29' E 139°48'0 0.0
2014-Aug-25 22:31N 35°29' E 139°48'0 0.0
2014-Aug-25 21:31N 35°29' E 139°48'0 0.0
2014-Aug-25 20:31N 35°29' E 139°48'0 0.1
2014-Aug-25 19:31N 35°29' E 139°48'0 0.0
2014-Aug-25 18:31N 35°29' E 139°48'0 0.0
2014-Aug-25 17:31N 35°29' E 139°48'0 0.0
2014-Aug-25 16:31N 35°29' E 139°48'0 0.1
2014-Aug-25 15:31N 35°29' E 139°48'5 5.0
2014-Aug-25 14:33N 35°24' E 139°46'1211.6
2014-Aug-25 13:34N 35°13' E 139°47'1312.8
2014-Aug-25 12:33N 35°03' E 139°37'  
2014-Aug-22 10:16N 34°07' E 135°08'4 5.7
2014-Aug-22 09:33N 34°10' E 135°04'1410.4
2014-Aug-22 08:12N 34°24' E 135°00'812.9
2014-Aug-22 07:33N 34°31' E 135°04'  
Track history (hours):
 
Tides and Currents Weather Stations Pressure Air Temp Water Temp Dewpoint Dewpoint Depression Visibility Wind Speed Wind Dir Waves Ship Positions

Eizo Maru

Last reported at 2014-Aug-29 07:33 UTC. Time now 2014-Aug-29 08:06 UTC.
Position N 35°29' E 139°51'.

Length 80 m; draft 4.7 m.

Type: Tanker. MMSI: 431000976.

Date/timePositionNaut miles runAvg speedWind from/ knotsBaromVisibWave heightAir tempDewpointWater temp
2014-Aug-29 07:33N 35°29' E 139°51'10 8.1
2014-Aug-29 06:22N 35°31' E 140°03'0 0.0
2014-Aug-29 05:31N 35°31' E 140°03'0 0.0
2014-Aug-29 04:31N 35°31' E 140°03'0 0.0
2014-Aug-29 03:28N 35°31' E 140°03'0 0.0
2014-Aug-29 02:31N 35°31' E 140°03'3 2.6
2014-Aug-29 01:26N 35°31' E 139°59'0 0.0
2014-Aug-29 00:23N 35°31' E 139°59'0 0.0
2014-Aug-28 23:32N 35°31' E 139°59'0 0.0
2014-Aug-28 22:32N 35°31' E 139°59'0 0.0
2014-Aug-28 21:26N 35°31' E 139°59'0 0.0
2014-Aug-28 20:26N 35°31' E 139°59'0 0.0
2014-Aug-28 19:32N 35°31' E 139°59'0 0.0
2014-Aug-28 18:32N 35°31' E 139°59'0 0.0
2014-Aug-28 17:32N 35°31' E 139°59'0 0.0
2014-Aug-28 16:32N 35°31' E 139°59'0 0.0
2014-Aug-28 15:29N 35°31' E 139°59'0 0.1
2014-Aug-28 14:29N 35°31' E 139°59'1010.5
2014-Aug-28 13:33N 35°26' E 139°49'1110.8
2014-Aug-28 12:34N 35°16' E 139°47'1211.7
2014-Aug-28 11:34N 35°05' E 139°42'31 1.4
2014-Aug-27 14:06N 34°48' E 139°10'2112.9
2014-Aug-27 12:29N 35°01' E 139°30'1213.2
2014-Aug-27 11:33N 35°08' E 139°42'1212.0
2014-Aug-27 10:33N 35°20' E 139°43'1111.3
2014-Aug-27 09:33N 35°30' E 139°47'1 0.8
2014-Aug-27 08:21N 35°31' E 139°46'0 0.0
2014-Aug-27 07:24N 35°31' E 139°46'0 0.0
2014-Aug-27 06:33N 35°31' E 139°46'6 5.6
2014-Aug-27 05:33N 35°31' E 139°53'8 7.9
2014-Aug-27 04:34N 35°31' E 140°02'0 0.0
2014-Aug-27 03:34N 35°31' E 140°02'0 0.0
2014-Aug-27 02:34N 35°31' E 140°02'0 0.0
2014-Aug-27 01:33N 35°31' E 140°02'0 0.0
2014-Aug-27 00:34N 35°31' E 140°02'0 0.0
2014-Aug-26 23:34N 35°31' E 140°02'0 0.0
2014-Aug-26 22:33N 35°31' E 140°02'2 2.4
2014-Aug-26 21:34N 35°32' E 139°60'1 0.6
2014-Aug-26 20:33N 35°32' E 139°59'0 0.0
2014-Aug-26 19:33N 35°32' E 139°59'0 0.0
2014-Aug-26 18:33N 35°32' E 139°59'0 0.0
2014-Aug-26 17:27N 35°32' E 139°59'0 0.0
2014-Aug-26 16:33N 35°32' E 139°59'0 0.0
2014-Aug-26 15:33N 35°32' E 139°59'0 0.0
2014-Aug-26 14:33N 35°32' E 139°59'0 0.0
2014-Aug-26 13:33N 35°32' E 139°59'0 0.0
2014-Aug-26 12:33N 35°32' E 139°59'0 0.0
2014-Aug-26 11:33N 35°32' E 139°59'0 0.0
2014-Aug-26 10:33N 35°32' E 139°59'2 2.4
2014-Aug-26 09:33N 35°31' E 139°56'8 1.0
2014-Aug-26 01:19N 35°31' E 139°46'2 2.4
2014-Aug-26 00:25N 35°29' E 139°48'0 0.0
2014-Aug-25 23:31N 35°29' E 139°48'0 0.0
2014-Aug-25 22:31N 35°29' E 139°48'0 0.0
2014-Aug-25 21:31N 35°29' E 139°48'0 0.0
2014-Aug-25 20:31N 35°29' E 139°48'0 0.1
2014-Aug-25 19:31N 35°29' E 139°48'0 0.0
2014-Aug-25 18:31N 35°29' E 139°48'0 0.0
2014-Aug-25 17:31N 35°29' E 139°48'0 0.0
2014-Aug-25 16:31N 35°29' E 139°48'0 0.1
2014-Aug-25 15:31N 35°29' E 139°48'5 5.0
2014-Aug-25 14:33N 35°24' E 139°46'1211.6
2014-Aug-25 13:34N 35°13' E 139°47'1312.8
2014-Aug-25 12:33N 35°03' E 139°37'  
2014-Aug-22 10:16N 34°07' E 135°08'4 5.7
2014-Aug-22 09:33N 34°10' E 135°04'1410.4
2014-Aug-22 08:12N 34°24' E 135°00'812.9
2014-Aug-22 07:33N 34°31' E 135°04'  

Dump ship's entire track history